Time;durP1;ratioP1;P1;durP2;ratioP2;P2;SDS_P1;SDS_P2;PMS_P1;PMS_P2;Temp;Humidity;BMP_temperature;BMP_pressure;BME280_temperature;BME280_humidity;BME280_pressure;Samples;Min_cycle;Max_cycle;Signal;HPM_P1;HPM_P2
2023/12/04 00:00:14;;;;;;;25.30;9.68;;;2.00;99.90;;;;;;5093996;28;20020;-69
2023/12/04 00:02:40;;;;;;;21.55;8.65;;;2.00;99.90;;;;;;5094091;28;20020;-69
2023/12/04 00:05:06;;;;;;;21.40;8.95;;;2.00;99.90;;;;;;5093979;28;20016;-69
2023/12/04 00:07:32;;;;;;;24.77;9.25;;;2.00;99.90;;;;;;5094121;28;20020;-69
2023/12/04 00:09:57;;;;;;;25.00;9.30;;;1.90;99.90;;;;;;5093916;28;20025;-69
2023/12/04 00:12:23;;;;;;;19.38;8.98;;;1.90;99.90;;;;;;5094067;28;20035;-69
2023/12/04 00:14:48;;;;;;;23.02;9.65;;;1.90;99.90;;;;;;5093920;28;20095;-70
2023/12/04 00:17:14;;;;;;;22.58;8.82;;;1.90;99.90;;;;;;5093867;28;20088;-69
2023/12/04 00:19:40;;;;;;;20.23;8.80;;;1.90;99.90;;;;;;5093650;28;20036;-69
2023/12/04 00:22:05;;;;;;;25.02;8.48;;;1.90;99.90;;;;;;5093833;28;20029;-69
2023/12/04 00:24:31;;;;;;;22.80;7.63;;;1.90;99.90;;;;;;5093732;28;20060;-69
2023/12/04 00:26:56;;;;;;;19.52;8.55;;;1.90;99.90;;;;;;5093565;28;20029;-70
2023/12/04 00:29:22;;;;;;;21.00;8.38;;;1.90;99.90;;;;;;5092237;28;20464;-69
2023/12/04 00:31:47;;;;;;;20.92;8.85;;;1.90;99.90;;;;;;5093611;28;20035;-68
2023/12/04 00:34:13;;;;;;;23.08;8.82;;;1.80;99.90;;;;;;5093512;28;20029;-69
2023/12/04 00:36:39;;;;;;;27.70;9.98;;;1.80;99.90;;;;;;5093530;28;20035;-69
2023/12/04 00:39:05;;;;;;;24.65;8.95;;;1.80;99.90;;;;;;5093421;28;20119;-69
2023/12/04 00:41:31;;;;;;;23.85;8.70;;;1.80;99.90;;;;;;5093347;28;20035;-69
2023/12/04 00:43:57;;;;;;;21.17;8.85;;;1.90;99.90;;;;;;5093203;28;20084;-69
2023/12/04 00:46:22;;;;;;;20.58;8.90;;;1.90;99.90;;;;;;5093273;28;20047;-69
2023/12/04 00:48:48;;;;;;;21.67;9.20;;;1.90;99.90;;;;;;5093242;28;20498;-69
2023/12/04 00:51:13;;;;;;;21.95;8.90;;;1.90;99.90;;;;;;5093284;28;20020;-69
2023/12/04 00:53:39;;;;;;;21.48;7.78;;;2.00;99.90;;;;;;5093094;28;20379;-69
2023/12/04 00:56:06;;;;;;;20.30;8.88;;;2.00;99.90;;;;;;5093095;28;20025;-69
2023/12/04 00:58:31;;;;;;;22.52;9.38;;;2.10;99.90;;;;;;5092870;28;20025;-70
2023/12/04 01:00:57;;;;;;;21.85;8.90;;;2.10;99.90;;;;;;5093020;28;20044;-69
2023/12/04 01:03:23;;;;;;;24.42;8.85;;;2.10;99.90;;;;;;5092107;28;20029;-69
2023/12/04 01:05:48;;;;;;;25.20;9.60;;;2.10;99.90;;;;;;5092961;28;20032;-69
2023/12/04 01:08:14;;;;;;;24.02;8.82;;;2.10;99.90;;;;;;5091836;28;20052;-69
2023/12/04 01:10:40;;;;;;;24.02;8.32;;;2.10;99.90;;;;;;5092857;28;20028;-69
2023/12/04 01:13:05;;;;;;;19.92;7.93;;;2.20;99.90;;;;;;5092886;28;20028;-69
2023/12/04 01:15:31;;;;;;;23.08;8.98;;;2.20;99.90;;;;;;5092769;28;20029;-69
2023/12/04 01:17:56;;;;;;;20.83;7.55;;;2.20;99.90;;;;;;5092830;28;20033;-69
2023/12/04 01:20:23;;;;;;;22.38;8.73;;;2.20;99.90;;;;;;5092712;28;20024;-69
2023/12/04 01:22:48;;;;;;;20.40;9.45;;;2.20;99.90;;;;;;5092644;28;20043;-69
2023/12/04 01:25:14;;;;;;;20.58;8.20;;;2.20;99.90;;;;;;5092479;28;20119;-69
2023/12/04 01:27:40;;;;;;;18.25;7.63;;;2.20;99.90;;;;;;5092580;28;20044;-69
2023/12/04 01:30:08;;;;;;;24.48;8.57;;;2.20;99.90;;;;;;5092412;28;20052;-69
2023/12/04 01:32:34;;;;;;;20.70;7.20;;;2.10;99.90;;;;;;5092638;28;20024;-70
2023/12/04 01:35:01;;;;;;;21.65;8.18;;;2.10;99.90;;;;;;5092580;28;20017;-69
2023/12/04 01:37:27;;;;;;;23.90;8.60;;;2.20;99.90;;;;;;5092574;28;20024;-69
2023/12/04 01:39:52;;;;;;;19.38;8.10;;;2.10;99.90;;;;;;5092487;28;20439;-69
2023/12/04 01:42:18;;;;;;;21.95;8.65;;;2.10;99.90;;;;;;5092539;28;20493;-70
2023/12/04 01:44:43;;;;;;;21.17;8.43;;;2.10;99.90;;;;;;5092461;28;20044;-69
2023/12/04 01:47:10;;;;;;;22.05;8.68;;;2.10;99.90;;;;;;5092391;28;20024;-69
2023/12/04 01:49:36;;;;;;;21.00;7.75;;;2.10;99.90;;;;;;5092466;28;20490;-69
2023/12/04 01:52:03;;;;;;;17.70;7.40;;;2.10;99.90;;;;;;5092373;28;20031;-69
2023/12/04 01:54:30;;;;;;;18.05;8.05;;;2.10;99.90;;;;;;5092350;28;20111;-69
2023/12/04 01:56:55;;;;;;;19.40;8.63;;;2.10;99.90;;;;;;5092440;28;20071;-69
2023/12/04 01:59:21;;;;;;;19.65;8.50;;;2.10;99.90;;;;;;5092248;28;20032;-69
2023/12/04 02:01:48;;;;;;;19.88;7.07;;;2.10;99.90;;;;;;5092388;28;20060;-69
2023/12/04 02:04:13;;;;;;;24.13;8.23;;;2.10;99.90;;;;;;5092344;28;20047;-69
2023/12/04 02:06:40;;;;;;;19.10;7.60;;;2.10;99.90;;;;;;5092186;28;20036;-69
2023/12/04 02:09:09;;;;;;;22.77;8.50;;;2.10;99.90;;;;;;5092217;28;20041;-69
2023/12/04 02:11:35;;;;;;;19.88;8.27;;;2.10;99.90;;;;;;5092248;28;20016;-69
2023/12/04 02:14:01;;;;;;;18.35;7.20;;;2.10;99.90;;;;;;5092251;28;20093;-69
2023/12/04 02:16:28;;;;;;;19.13;8.30;;;2.10;99.90;;;;;;5095846;28;20032;-69
2023/12/04 02:18:54;;;;;;;19.27;7.05;;;2.10;99.90;;;;;;5096166;28;20045;-69
2023/12/04 02:21:20;;;;;;;20.38;7.70;;;2.10;99.90;;;;;;5095993;28;20049;-69
2023/12/04 02:23:52;;;;;;;22.95;8.45;;;2.20;99.90;;;;;;5095940;28;20032;-69
2023/12/04 02:26:23;;;;;;;19.23;7.47;;;2.20;99.90;;;;;;5095978;28;20029;-69
2023/12/04 02:28:59;;;;;;;14.45;7.03;;;2.20;99.90;;;;;;5095495;28;20075;-69
2023/12/04 02:31:26;;;;;;;16.40;7.20;;;2.20;99.90;;;;;;5095850;28;20028;-70
2023/12/04 02:33:57;;;;;;;20.65;7.78;;;2.20;99.90;;;;;;5094711;28;20178;-69
2023/12/04 02:36:25;;;;;;;18.05;7.40;;;2.20;99.90;;;;;;5095789;28;20036;-69
2023/12/04 02:38:52;;;;;;;17.45;7.60;;;2.20;99.90;;;;;;5095767;28;20021;-69
2023/12/04 02:41:18;;;;;;;16.80;6.68;;;2.20;99.90;;;;;;5095714;28;20029;-69
2023/12/04 02:43:43;;;;;;;23.08;7.63;;;2.20;99.90;;;;;;5095637;28;20047;-69
2023/12/04 02:46:09;;;;;;;13.85;6.13;;;2.20;99.90;;;;;;5095422;28;20495;-69
2023/12/04 02:48:35;;;;;;;15.55;6.97;;;2.20;99.90;;;;;;5095590;28;20033;-69
2023/12/04 02:51:01;;;;;;;20.63;7.75;;;2.20;99.90;;;;;;5095504;28;20024;-69
2023/12/04 02:53:27;;;;;;;17.10;7.45;;;2.20;99.90;;;;;;5094429;28;20025;-69
2023/12/04 02:55:53;;;;;;;15.65;6.68;;;2.20;99.90;;;;;;5095389;28;20047;-69
2023/12/04 02:58:18;;;;;;;17.23;7.10;;;2.20;99.90;;;;;;5095375;28;20032;-68
2023/12/04 03:00:44;;;;;;;16.63;7.40;;;2.20;99.90;;;;;;5095027;28;20032;-69
2023/12/04 03:03:10;;;;;;;19.02;7.65;;;2.10;99.90;;;;;;5095131;28;20480;-68
2023/12/04 03:05:36;;;;;;;14.25;6.45;;;2.10;99.90;;;;;;5094098;28;20048;-68
2023/12/04 03:08:02;;;;;;;19.98;8.23;;;2.10;99.90;;;;;;5095324;28;20017;-69
2023/12/04 03:10:27;;;;;;;20.88;8.25;;;2.10;99.90;;;;;;5095193;28;20017;-69
2023/12/04 03:12:53;;;;;;;15.18;6.85;;;2.10;99.90;;;;;;5095193;28;20390;-69
2023/12/04 03:15:19;;;;;;;19.00;7.28;;;2.10;99.90;;;;;;5095106;28;20119;-69
2023/12/04 03:17:44;;;;;;;17.73;7.38;;;2.10;99.90;;;;;;5095018;28;20040;-69
2023/12/04 03:20:10;;;;;;;18.73;7.18;;;2.10;99.90;;;;;;5094886;28;20024;-69
2023/12/04 03:22:36;;;;;;;15.55;6.68;;;2.10;99.90;;;;;;5094903;28;20035;-69
2023/12/04 03:25:02;;;;;;;16.35;6.43;;;2.10;99.90;;;;;;5094819;28;20033;-69
2023/12/04 03:27:28;;;;;;;16.25;7.18;;;2.10;99.90;;;;;;5093655;28;20064;-69
2023/12/04 03:29:54;;;;;;;16.55;6.45;;;2.10;99.90;;;;;;5094495;28;20028;-70
2023/12/04 03:32:20;;;;;;;15.43;6.55;;;2.10;99.90;;;;;;5094709;28;20023;-69
2023/12/04 03:34:45;;;;;;;17.73;6.50;;;2.10;99.90;;;;;;5094645;28;20029;-69
2023/12/04 03:37:11;;;;;;;16.67;6.65;;;2.10;99.90;;;;;;5094747;28;20092;-69
2023/12/04 03:39:36;;;;;;;15.13;6.53;;;2.00;99.90;;;;;;5094615;28;20048;-69
2023/12/04 03:42:02;;;;;;;17.65;7.10;;;2.00;99.90;;;;;;5094650;28;20041;-69
2023/12/04 03:44:28;;;;;;;15.00;6.43;;;2.00;99.90;;;;;;5094434;28;20051;-69
2023/12/04 03:46:53;;;;;;;13.80;6.22;;;2.00;99.90;;;;;;5094387;28;20024;-69
2023/12/04 03:49:19;;;;;;;13.05;6.78;;;2.00;99.90;;;;;;5094348;28;20025;-69
2023/12/04 03:51:45;;;;;;;15.82;6.00;;;2.00;99.90;;;;;;5094398;28;20055;-69
2023/12/04 03:54:11;;;;;;;15.63;6.70;;;1.90;99.90;;;;;;5093351;28;20043;-69
2023/12/04 03:56:36;;;;;;;16.00;6.70;;;1.90;99.90;;;;;;5094336;28;20080;-69
2023/12/04 03:59:02;;;;;;;14.75;6.53;;;2.00;99.90;;;;;;5094023;28;20059;-69
2023/12/04 04:01:28;;;;;;;17.90;7.45;;;1.90;99.90;;;;;;5094220;28;20503;-68
2023/12/04 04:03:53;;;;;;;15.77;6.18;;;1.90;99.90;;;;;;5094133;28;20116;-69
2023/12/04 04:06:19;;;;;;;16.30;7.10;;;2.00;99.90;;;;;;5094045;28;20039;-69
2023/12/04 04:08:45;;;;;;;16.75;7.28;;;1.90;99.90;;;;;;5094051;28;20028;-69
2023/12/04 04:11:11;;;;;;;14.13;6.95;;;1.90;99.90;;;;;;5092965;28;20033;-69
2023/12/04 04:13:37;;;;;;;16.80;7.13;;;1.90;99.90;;;;;;5094001;28;20028;-68
2023/12/04 04:16:03;;;;;;;14.68;7.20;;;1.90;99.90;;;;;;5093769;28;20080;-69
2023/12/04 04:18:29;;;;;;;14.27;6.60;;;1.90;99.90;;;;;;5093865;28;20033;-69
2023/12/04 04:20:55;;;;;;;14.43;6.88;;;1.90;99.90;;;;;;5093674;28;20041;-69
2023/12/04 04:23:20;;;;;;;15.88;6.25;;;1.90;99.90;;;;;;5093723;28;20067;-69
2023/12/04 04:25:46;;;;;;;13.88;6.25;;;1.80;99.90;;;;;;5093655;28;20060;-69
2023/12/04 04:28:11;;;;;;;15.77;6.25;;;1.90;99.90;;;;;;5093535;28;20112;-69
2023/12/04 04:30:37;;;;;;;13.00;6.32;;;1.90;99.90;;;;;;5093506;28;20096;-69
2023/12/04 04:33:04;;;;;;;19.48;6.05;;;1.80;99.90;;;;;;5093549;28;20024;-69
2023/12/04 04:35:30;;;;;;;19.35;7.15;;;1.80;99.90;;;;;;5093436;28;20021;-69
2023/12/04 04:37:55;;;;;;;15.85;6.97;;;1.80;99.90;;;;;;5093407;28;20024;-68
2023/12/04 04:40:21;;;;;;;14.75;6.35;;;1.80;99.90;;;;;;5093443;28;20040;-68
2023/12/04 04:42:47;;;;;;;13.40;6.25;;;1.90;99.90;;;;;;5093339;28;20031;-69
2023/12/04 04:45:13;;;;;;;16.88;6.95;;;1.80;99.90;;;;;;5093336;28;20020;-68
2023/12/04 04:47:38;;;;;;;15.35;6.55;;;1.90;99.90;;;;;;5092134;28;20060;-69
2023/12/04 04:50:04;;;;;;;11.88;6.05;;;1.80;99.90;;;;;;5093160;28;20040;-69
2023/12/04 04:52:30;;;;;;;14.05;6.97;;;1.90;99.90;;;;;;5093237;28;20480;-69
2023/12/04 04:54:55;;;;;;;14.80;6.53;;;1.90;99.90;;;;;;5093063;28;20052;-69
2023/12/04 04:57:21;;;;;;;14.15;6.50;;;1.80;99.90;;;;;;5093130;28;20500;-69
2023/12/04 04:59:47;;;;;;;13.98;7.03;;;1.90;99.90;;;;;;5092846;28;20134;-69
2023/12/04 05:02:12;;;;;;;12.10;5.57;;;1.90;99.90;;;;;;5093022;28;20037;-68
2023/12/04 05:04:38;;;;;;;15.05;6.90;;;1.90;99.90;;;;;;5092927;28;20088;-69
2023/12/04 05:07:04;;;;;;;14.07;6.63;;;1.90;99.90;;;;;;5092765;28;20025;-69
2023/12/04 05:09:29;;;;;;;14.70;6.03;;;1.90;99.90;;;;;;5091833;28;20032;-68
2023/12/04 05:11:55;;;;;;;15.82;6.70;;;1.90;99.90;;;;;;5092873;28;20040;-68
2023/12/04 05:14:20;;;;;;;13.10;5.55;;;1.80;99.90;;;;;;5092773;28;20031;-69
2023/12/04 05:16:46;;;;;;;14.10;6.50;;;1.80;99.90;;;;;;5092866;28;20033;-68
2023/12/04 05:19:12;;;;;;;14.02;6.20;;;1.90;99.90;;;;;;5092797;28;20029;-69
2023/12/04 05:21:37;;;;;;;13.68;5.95;;;1.90;99.90;;;;;;5092692;28;20090;-69
2023/12/04 05:24:03;;;;;;;16.10;6.50;;;1.90;99.90;;;;;;5092630;28;20036;-69
2023/12/04 05:26:28;;;;;;;13.32;5.60;;;1.90;99.90;;;;;;5092605;28;20039;-68
2023/12/04 05:28:54;;;;;;;12.13;5.53;;;1.90;99.90;;;;;;5091336;28;20053;-68
2023/12/04 05:31:20;;;;;;;14.02;6.20;;;1.90;99.90;;;;;;5096453;28;20032;-69
2023/12/04 05:33:45;;;;;;;14.25;6.35;;;1.90;99.90;;;;;;5112884;28;20024;-69
2023/12/04 05:36:11;;;;;;;13.70;5.57;;;2.00;99.90;;;;;;5112906;28;20032;-69
2023/12/04 05:38:36;;;;;;;11.95;5.93;;;2.00;99.90;;;;;;5110817;28;20032;-69
2023/12/04 05:41:02;;;;;;;12.35;5.38;;;2.00;99.90;;;;;;5110915;28;20036;-69
2023/12/04 05:43:28;;;;;;;11.70;5.72;;;2.00;99.90;;;;;;5111128;28;20024;-69
2023/12/04 05:45:54;;;;;;;12.15;5.57;;;2.00;99.90;;;;;;5110944;28;20628;-69
2023/12/04 05:48:19;;;;;;;16.10;6.00;;;2.00;99.90;;;;;;5111071;28;20024;-69
2023/12/04 05:50:45;;;;;;;14.77;5.82;;;2.00;99.90;;;;;;5110540;28;20083;-68
2023/12/04 05:53:11;;;;;;;11.90;5.43;;;2.00;99.90;;;;;;5111062;28;20032;-69
2023/12/04 05:55:37;;;;;;;11.30;5.63;;;2.00;99.90;;;;;;5112160;28;20036;-68
2023/12/04 05:58:02;;;;;;;13.45;6.28;;;2.00;99.90;;;;;;5112547;28;20040;-68
2023/12/04 06:00:28;;;;;;;12.85;5.72;;;2.00;99.90;;;;;;5112376;28;20024;-68
2023/12/04 06:02:53;;;;;;;9.80;6.03;;;2.00;99.90;;;;;;5112513;28;20036;-70
2023/12/04 06:05:19;;;;;;;14.82;5.40;;;2.00;99.90;;;;;;5112398;28;20036;-68
2023/12/04 06:07:45;;;;;;;15.35;6.32;;;2.00;99.90;;;;;;5112675;28;20032;-69
2023/12/04 06:10:10;;;;;;;13.80;6.80;;;2.00;99.90;;;;;;5112525;28;20032;-68
2023/12/04 06:12:36;;;;;;;12.10;5.28;;;2.00;99.90;;;;;;5111399;28;20033;-68
2023/12/04 06:15:02;;;;;;;13.65;6.00;;;2.00;99.90;;;;;;5112421;28;20035;-69
2023/12/04 06:17:27;;;;;;;15.52;6.35;;;2.00;99.90;;;;;;5112416;28;20031;-68
2023/12/04 06:19:53;;;;;;;15.98;6.40;;;2.00;99.90;;;;;;5112246;28;20032;-68
2023/12/04 06:22:21;;;;;;;12.13;5.45;;;2.00;99.90;;;;;;5112409;28;20032;-68
2023/12/04 06:24:47;;;;;;;13.70;6.25;;;2.00;99.90;;;;;;5112318;28;20028;-69
2023/12/04 06:27:19;;;;;;;12.98;5.68;;;2.00;99.90;;;;;;5112316;28;20054;-68
2023/12/04 06:29:45;;;;;;;14.45;5.85;;;2.00;99.90;;;;;;5111991;28;20105;-69
2023/12/04 06:32:11;;;;;;;10.88;5.55;;;2.10;99.90;;;;;;5111317;28;20062;-69
2023/12/04 06:34:37;;;;;;;10.05;4.80;;;2.10;99.90;;;;;;5112284;28;20046;-68
2023/12/04 06:37:03;;;;;;;12.02;5.85;;;2.10;99.90;;;;;;5111452;28;20024;-68
2023/12/04 06:39:32;;;;;;;9.90;4.75;;;2.10;99.90;;;;;;5111863;28;20028;-68
2023/12/04 06:41:59;;;;;;;16.83;6.28;;;2.20;99.90;;;;;;5111144;28;20079;-68
2023/12/04 06:44:25;;;;;;;12.43;5.07;;;2.20;99.90;;;;;;5111819;28;20028;-69
2023/12/04 06:46:52;;;;;;;11.90;5.93;;;2.20;99.90;;;;;;5110981;28;20027;-69
2023/12/04 06:49:18;;;;;;;13.20;6.75;;;2.20;99.90;;;;;;5112094;28;20020;-69
2023/12/04 06:51:44;;;;;;;11.38;5.13;;;2.20;99.90;;;;;;5112011;28;20031;-69
2023/12/04 06:54:10;;;;;;;13.02;5.60;;;2.20;99.90;;;;;;5112020;28;20025;-69
2023/12/04 06:56:36;;;;;;;10.93;5.57;;;2.20;99.90;;;;;;5112160;28;20029;-69
2023/12/04 06:59:02;;;;;;;13.00;6.00;;;2.20;99.90;;;;;;5112020;28;20028;-69
2023/12/04 07:01:27;;;;;;;10.55;5.00;;;2.20;99.90;;;;;;5111954;28;20020;-71
2023/12/04 07:03:53;;;;;;;10.82;5.60;;;2.20;99.90;;;;;;5115645;28;20076;-70
2023/12/04 07:06:18;;;;;;;10.77;5.07;;;2.30;99.90;;;;;;5114171;28;20036;-70
2023/12/04 07:08:44;;;;;;;11.73;5.43;;;2.20;99.90;;;;;;5113534;28;20039;-70
2023/12/04 07:11:10;;;;;;;8.80;4.80;;;2.20;99.90;;;;;;5114807;28;20020;-70
2023/12/04 07:13:36;;;;;;;10.10;4.40;;;2.20;99.90;;;;;;5115069;28;20027;-70
2023/12/04 07:16:02;;;;;;;11.30;5.32;;;2.20;99.90;;;;;;5114854;28;20044;-70
2023/12/04 07:18:28;;;;;;;11.43;4.82;;;2.20;99.90;;;;;;5115086;28;20106;-71
2023/12/04 07:20:54;;;;;;;31.23;11.45;;;2.30;99.90;;;;;;5114951;28;20039;-71
2023/12/04 07:23:19;;;;;;;11.38;5.25;;;2.30;99.90;;;;;;5115130;28;20032;-71
2023/12/04 07:25:46;;;;;;;10.48;4.80;;;2.30;99.90;;;;;;5115111;28;20111;-71
2023/12/04 07:28:11;;;;;;;12.13;5.53;;;2.30;99.90;;;;;;5114986;28;20054;-71
2023/12/04 07:30:38;;;;;;;9.60;4.65;;;2.30;99.90;;;;;;5114878;28;20024;-70
2023/12/04 07:33:03;;;;;;;9.35;4.93;;;2.30;99.90;;;;;;5115130;28;20116;-71
2023/12/04 07:35:29;;;;;;;10.98;5.47;;;2.20;99.90;;;;;;5114094;28;20016;-70
2023/12/04 07:37:55;;;;;;;13.57;5.00;;;2.20;99.90;;;;;;5114953;28;20028;-71
2023/12/04 07:40:22;;;;;;;11.73;4.97;;;2.20;99.90;;;;;;5114852;28;20035;-70
2023/12/04 07:42:48;;;;;;;11.80;5.07;;;2.20;99.90;;;;;;5113812;28;20012;-70
2023/12/04 07:45:15;;;;;;;11.80;5.55;;;2.30;99.90;;;;;;5114777;28;20035;-70
2023/12/04 07:47:41;;;;;;;10.63;4.68;;;2.30;99.90;;;;;;5114824;28;20027;-70
2023/12/04 07:50:07;;;;;;;14.38;5.53;;;2.30;99.90;;;;;;5114757;28;20032;-70
2023/12/04 07:52:33;;;;;;;11.40;5.15;;;2.30;99.90;;;;;;5114688;28;20024;-70
2023/12/04 07:54:58;;;;;;;9.32;4.63;;;2.30;99.90;;;;;;5114529;28;20027;-70
2023/12/04 07:57:24;;;;;;;9.93;5.10;;;2.30;99.90;;;;;;5114716;28;20048;-70
2023/12/04 07:59:50;;;;;;;13.73;5.47;;;2.30;99.90;;;;;;5114419;28;20489;-70
2023/12/04 08:02:15;;;;;;;10.60;5.25;;;2.30;99.90;;;;;;5114572;28;20091;-70
2023/12/04 08:04:41;;;;;;;11.70;5.18;;;2.30;99.90;;;;;;5114485;28;20023;-70
2023/12/04 08:07:07;;;;;;;11.38;5.13;;;2.40;99.90;;;;;;5114260;28;20036;-70
2023/12/04 08:09:33;;;;;;;12.88;5.10;;;2.40;99.90;;;;;;5113495;28;20027;-71
2023/12/04 08:11:59;;;;;;;11.50;4.93;;;2.40;99.90;;;;;;5114214;28;20028;-71
2023/12/04 08:14:24;;;;;;;9.77;4.90;;;2.40;99.90;;;;;;5111361;28;20050;-70
2023/12/04 08:16:50;;;;;;;11.55;5.18;;;2.50;99.90;;;;;;5110831;28;20025;-70
2023/12/04 08:19:16;;;;;;;9.48;4.57;;;2.50;99.90;;;;;;5092608;28;20035;-70
2023/12/04 08:21:41;;;;;;;7.85;4.22;;;2.50;99.90;;;;;;5093170;28;20036;-71
2023/12/04 08:24:07;;;;;;;11.10;4.88;;;2.50;99.90;;;;;;5092548;28;20046;-70
2023/12/04 08:26:33;;;;;;;13.20;5.13;;;2.50;99.90;;;;;;5093346;28;20050;-70
2023/12/04 08:28:59;;;;;;;12.13;5.38;;;2.50;99.90;;;;;;5092717;28;20036;-71
2023/12/04 08:31:24;;;;;;;11.43;5.18;;;2.60;99.90;;;;;;5093258;28;20027;-70
2023/12/04 08:33:50;;;;;;;10.82;4.60;;;2.60;99.90;;;;;;5093239;28;20036;-70
2023/12/04 08:36:16;;;;;;;12.65;5.35;;;2.60;99.90;;;;;;5093011;28;20044;-70
2023/12/04 08:38:41;;;;;;;11.98;5.05;;;2.70;99.90;;;;;;5093093;28;20036;-70
2023/12/04 08:41:07;;;;;;;10.57;4.63;;;2.70;99.90;;;;;;5092914;28;20040;-70
2023/12/04 08:43:33;;;;;;;9.98;5.05;;;2.70;99.90;;;;;;5092750;28;20048;-71
2023/12/04 08:46:00;;;;;;;9.07;5.18;;;2.70;99.90;;;;;;5092904;28;20036;-70
2023/12/04 08:48:25;;;;;;;11.98;4.88;;;2.70;99.90;;;;;;5092969;28;20021;-70
2023/12/04 08:50:51;;;;;;;10.25;4.82;;;2.70;99.90;;;;;;5092542;28;20076;-70
2023/12/04 08:53:17;;;;;;;11.77;5.45;;;2.70;99.90;;;;;;5092758;28;20021;-71
2023/12/04 08:55:44;;;;;;;12.60;5.70;;;2.70;99.90;;;;;;5092717;28;20040;-71
2023/12/04 08:58:10;;;;;;;10.70;5.07;;;2.80;99.60;;;;;;5092783;28;20050;-71
2023/12/04 09:00:37;;;;;;;11.75;5.55;;;2.80;99.50;;;;;;5092452;28;20017;-71
2023/12/04 09:03:03;;;;;;;12.43;5.25;;;2.80;99.80;;;;;;5092420;28;20032;-71
2023/12/04 09:05:28;;;;;;;12.18;5.68;;;2.80;99.90;;;;;;5092464;28;20024;-70
2023/12/04 09:07:54;;;;;;;10.10;4.93;;;2.80;99.90;;;;;;5092670;28;20052;-70
2023/12/04 09:10:19;;;;;;;12.18;5.50;;;2.80;99.90;;;;;;5092540;28;20084;-70
2023/12/04 09:12:45;;;;;;;10.63;5.60;;;2.90;99.90;;;;;;5092227;28;20027;-71
2023/12/04 09:15:11;;;;;;;10.68;5.22;;;2.90;99.90;;;;;;5091233;28;20024;-70
2023/12/04 09:17:37;;;;;;;15.38;6.72;;;2.90;99.60;;;;;;5092527;28;20080;-70
2023/12/04 09:20:05;;;;;;;11.88;5.57;;;2.90;99.70;;;;;;5092230;28;20036;-70
2023/12/04 09:22:31;;;;;;;12.40;5.88;;;2.80;99.60;;;;;;5092499;28;20021;-70
2023/12/04 09:24:57;;;;;;;12.90;5.88;;;2.80;99.60;;;;;;5091432;28;20029;-71
2023/12/04 09:27:23;;;;;;;11.65;5.75;;;2.80;99.90;;;;;;5092447;28;20020;-70
2023/12/04 09:29:48;;;;;;;13.27;5.75;;;2.80;99.90;;;;;;5092107;28;20067;-71
2023/12/04 09:32:14;;;;;;;12.15;6.07;;;2.80;99.90;;;;;;5092321;28;20028;-70
2023/12/04 09:34:39;;;;;;;14.07;5.68;;;2.80;99.90;;;;;;5092089;28;20021;-70
2023/12/04 09:37:05;;;;;;;13.73;5.97;;;2.80;99.90;;;;;;5091971;28;20032;-70
2023/12/04 09:39:31;;;;;;;14.52;6.15;;;2.80;99.90;;;;;;5092204;28;20029;-70
2023/12/04 09:41:58;;;;;;;11.93;6.32;;;2.90;99.90;;;;;;5092145;28;20063;-70
2023/12/04 09:44:26;;;;;;;13.63;6.70;;;2.90;99.90;;;;;;5091942;28;20031;-70
2023/12/04 09:46:52;;;;;;;13.63;6.03;;;2.80;99.90;;;;;;5091833;28;20024;-70
2023/12/04 09:49:18;;;;;;;14.60;7.40;;;2.80;99.90;;;;;;5091782;28;20023;-71
2023/12/04 09:51:44;;;;;;;15.57;7.43;;;2.80;99.90;;;;;;5091600;28;20021;-70
2023/12/04 09:54:12;;;;;;;12.93;6.65;;;2.90;99.90;;;;;;5090674;28;20055;-71
2023/12/04 09:56:38;;;;;;;17.15;7.30;;;2.80;99.90;;;;;;5091719;28;20029;-70
2023/12/04 09:59:06;;;;;;;15.23;6.40;;;2.90;99.90;;;;;;5091167;28;20043;-70
2023/12/04 10:01:32;;;;;;;16.38;7.35;;;2.90;99.90;;;;;;5091300;28;20024;-70
2023/12/04 10:03:59;;;;;;;14.45;6.60;;;2.90;99.90;;;;;;5091748;28;20092;-71
2023/12/04 10:06:31;;;;;;;16.17;7.18;;;2.90;99.90;;;;;;5091815;28;20062;-71
2023/12/04 10:08:58;;;;;;;13.02;6.45;;;2.90;99.90;;;;;;5091852;28;20028;-71
2023/12/04 10:11:24;;;;;;;14.82;6.60;;;2.90;99.90;;;;;;5092029;28;20040;-70
2023/12/04 10:13:51;;;;;;;13.20;6.43;;;2.90;99.90;;;;;;5091696;28;20020;-71
2023/12/04 10:16:33;;;;;;;16.00;7.05;;;2.90;99.90;;;;;;5091711;28;20092;-71
2023/12/04 10:19:15;;;;;;;14.95;7.10;;;2.90;99.90;;;;;;5091459;28;20039;-71
2023/12/04 10:21:40;;;;;;;14.80;7.07;;;2.90;99.90;;;;;;5091771;28;20028;-71
2023/12/04 10:24:06;;;;;;;15.75;7.55;;;3.00;99.90;;;;;;5091641;28;20032;-71
2023/12/04 10:26:32;;;;;;;16.40;7.10;;;3.00;99.90;;;;;;5091572;28;20045;-71
2023/12/04 10:29:02;;;;;;;14.50;7.50;;;3.00;99.90;;;;;;5090905;28;20045;-71
2023/12/04 10:31:34;;;;;;;14.75;7.60;;;3.00;99.90;;;;;;5091678;28;20034;-71
2023/12/04 10:34:04;;;;;;;;;;;3.00;99.90;;;;;;5110188;28;20050;-72
2023/12/04 10:36:31;;;;;;;17.88;7.13;;;3.00;99.90;;;;;;5112640;28;20282;-71
2023/12/04 10:39:00;;;;;;;16.48;7.10;;;3.10;99.90;;;;;;5114827;28;20028;-71
2023/12/04 10:41:27;;;;;;;18.20;7.13;;;3.10;99.90;;;;;;5115251;28;20087;-71
2023/12/04 10:43:55;;;;;;;15.60;7.25;;;3.10;99.90;;;;;;5114494;28;20034;-70
2023/12/04 10:46:21;;;;;;;13.20;6.60;;;3.10;99.90;;;;;;5115657;28;20509;-70
2023/12/04 10:48:48;;;;;;;15.93;7.72;;;3.20;99.90;;;;;;5115483;28;20016;-70
2023/12/04 10:51:17;;;;;;;15.43;6.90;;;3.30;99.90;;;;;;5115521;28;20237;-71
2023/12/04 10:53:42;;;;;;;14.57;6.45;;;3.30;99.90;;;;;;5115343;28;20084;-71
2023/12/04 10:56:27;;;;;;;15.93;6.60;;;3.20;99.90;;;;;;5115465;28;20016;-71
2023/12/04 10:58:57;;;;;;;15.93;7.20;;;3.30;99.90;;;;;;5115041;28;20047;-71
2023/12/04 11:01:24;;;;;;;15.15;6.38;;;3.30;99.80;;;;;;5115139;28;20565;-71
2023/12/04 11:03:54;;;;;;;15.90;7.35;;;3.40;99.90;;;;;;5115428;28;20024;-70
2023/12/04 11:06:21;;;;;;;14.05;6.57;;;3.40;99.90;;;;;;5115167;28;20060;-70
2023/12/04 11:08:48;;;;;;;14.05;7.10;;;3.40;99.90;;;;;;5115115;28;20028;-70
2023/12/04 11:11:26;;;;;;;14.20;6.60;;;3.40;99.90;;;;;;5115161;28;20023;-70
2023/12/04 11:13:57;;;;;;;17.27;7.72;;;3.50;99.90;;;;;;5115002;28;20024;-70
2023/12/04 11:16:33;;;;;;;13.98;6.65;;;3.50;99.80;;;;;;5115221;28;20012;-70
2023/12/04 11:19:14;;;;;;;13.20;6.43;;;3.50;99.90;;;;;;5114805;28;20024;-70
2023/12/04 11:21:41;;;;;;;13.80;6.60;;;3.40;99.90;;;;;;5114992;28;20027;-70
2023/12/04 11:24:08;;;;;;;16.17;6.35;;;3.40;99.90;;;;;;5114919;28;20054;-71
2023/12/04 11:26:34;;;;;;;15.27;6.65;;;3.50;99.80;;;;;;5114987;28;20024;-71
2023/12/04 11:29:01;;;;;;;14.85;7.13;;;3.50;99.30;;;;;;5113101;28;20055;-71
2023/12/04 11:31:27;;;;;;;12.68;6.22;;;3.50;99.60;;;;;;5114715;28;20113;-70
2023/12/04 11:33:52;;;;;;;15.70;6.63;;;3.50;99.40;;;;;;5114841;28;20024;-71
2023/12/04 11:36:18;;;;;;;14.50;7.00;;;3.50;99.60;;;;;;5114781;28;20036;-70
2023/12/04 11:38:46;;;;;;;13.23;6.25;;;3.50;99.60;;;;;;5114658;28;20020;-71
2023/12/04 11:41:18;;;;;;;17.15;6.80;;;3.60;99.60;;;;;;5114541;28;20110;-71
2023/12/04 11:43:46;;;;;;;15.15;6.50;;;3.60;99.80;;;;;;5114357;28;20036;-70
2023/12/04 11:46:12;;;;;;;14.40;6.93;;;3.60;99.90;;;;;;5114525;28;20033;-71
2023/12/04 11:48:38;;;;;;;13.05;7.18;;;3.60;99.60;;;;;;5113764;28;20029;-71
2023/12/04 11:51:08;;;;;;;13.13;6.03;;;3.60;99.70;;;;;;5114240;28;20028;-71
2023/12/04 11:53:40;;;;;;;15.80;7.50;;;3.60;99.60;;;;;;5113308;28;20024;-70
2023/12/04 11:56:11;;;;;;;14.30;6.60;;;3.60;99.40;;;;;;5114368;28;20039;-70
2023/12/04 11:58:43;;;;;;;15.13;6.97;;;3.60;99.40;;;;;;5114143;28;20085;-70
2023/12/04 12:01:08;;;;;;;16.20;6.68;;;3.60;99.70;;;;;;5114179;28;20016;-70
2023/12/04 12:03:34;;;;;;;14.48;6.32;;;3.60;99.40;;;;;;5114196;28;20035;-70
2023/12/04 12:06:00;;;;;;;15.30;6.95;;;3.60;99.70;;;;;;5114097;28;20041;-70
2023/12/04 12:08:28;;;;;;;13.05;6.38;;;3.60;99.70;;;;;;5114214;28;20031;-70
2023/12/04 12:10:54;;;;;;;15.77;7.25;;;3.60;99.70;;;;;;5113832;28;20020;-70
2023/12/04 12:13:21;;;;;;;15.25;6.60;;;3.60;99.90;;;;;;5113806;28;20028;-70
2023/12/04 12:15:50;;;;;;;13.32;6.70;;;3.70;99.90;;;;;;5113862;28;20028;-71
2023/12/04 12:18:16;;;;;;;14.50;7.72;;;3.70;99.90;;;;;;5114218;28;20027;-71
2023/12/04 12:20:41;;;;;;;13.15;6.05;;;3.70;99.90;;;;;;5113711;28;20020;-71
2023/12/04 12:23:08;;;;;;;16.40;7.15;;;3.70;99.90;;;;;;5113507;28;20359;-70
2023/12/04 12:25:35;;;;;;;17.00;6.72;;;3.70;99.80;;;;;;5113460;28;20028;-70
2023/12/04 12:28:07;;;;;;;13.38;7.13;;;3.80;99.90;;;;;;5113584;28;20048;-71
2023/12/04 12:30:33;;;;;;;14.80;7.68;;;3.70;99.70;;;;;;5113443;28;20479;-70
2023/12/04 12:32:59;;;;;;;16.35;7.22;;;3.70;99.90;;;;;;5103404;28;20024;-69
2023/12/04 12:35:25;;;;;;;16.30;7.07;;;3.70;99.90;;;;;;5093235;28;20032;-71
2023/12/04 12:37:54;;;;;;;14.98;6.97;;;3.70;99.90;;;;;;5093065;28;20032;-71
2023/12/04 12:40:21;;;;;;;18.63;7.88;;;3.70;99.90;;;;;;5104292;28;20032;-71
2023/12/04 12:42:47;;;;;;;15.00;7.68;;;3.70;99.90;;;;;;5113764;28;20020;-71